M. Luther — WDC7372 — position and weather

sailwx.info

Track history (hours):
 
Tides and Currents Weather Stations Pressure Air Temp Water Temp Dewpoint Dewpoint Depression Visibility Wind Speed Wind Dir Waves Ship Positions

M. Luther

Owner: Salmon Bay Barge Line, Inc., Seattle, WA. More information available from US FCC via Universal Licensing System and Coast Guard Vessel Documentation Center.

Last reported at 2015-Mar-27 16:08 UTC. Time now 2015-Mar-28 00:37 UTC.
Position N 47°33' W 122°21'.

Length 28 m; draft 4.1 m.

Type: Tug. MMSI: 367070410.

Date/timePositionNaut miles runAvg speedWind from/ knotsBaromVisibWave heightAir tempDewpointWater temp
2015-Mar-27 16:08N 47°33' W 122°21'0 0.2
2015-Mar-27 16:05N 47°33' W 122°21'0 0.0
2015-Mar-27 15:23N 47°33' W 122°21'0 0.0
2015-Mar-27 14:20N 47°33' W 122°21'0 0.0
2015-Mar-27 14:00N 47°33' W 122°21'0 0.1
2015-Mar-27 13:33N 47°33' W 122°21'0 1.3
2015-Mar-27 13:30N 47°33' W 122°21'3 2.7
2015-Mar-27 12:33N 47°36' W 122°23'0 2.0
2015-Mar-27 12:30N 47°36' W 122°23'3 2.8
2015-Mar-27 11:33N 47°37' W 122°26'0 3.0
2015-Mar-27 11:29N 47°37' W 122°26'3 3.3
2015-Mar-27 10:34N 47°40' W 122°29'0 2.8
2015-Mar-27 10:30N 47°40' W 122°29'3 3.5
2015-Mar-27 09:33N 47°43' W 122°28'0 3.1
2015-Mar-27 09:30N 47°43' W 122°28'3 3.5
2015-Mar-27 08:33N 47°47' W 122°28'0 3.1
2015-Mar-27 08:30N 47°47' W 122°28'4 4.2
2015-Mar-27 07:34N 47°51' W 122°29'0 3.9
2015-Mar-27 07:30N 47°51' W 122°29'4 4.4
2015-Mar-27 06:33N 47°55' W 122°31'5 5.3
2015-Mar-27 05:34N 47°59' W 122°37'6 5.8
2015-Mar-27 04:33N 48°04' W 122°40'9 8.8
2015-Mar-27 03:33N 48°12' W 122°46'7 7.2
2015-Mar-27 02:31N 48°19' W 122°47'7 7.2
2015-Mar-27 01:33N 48°26' W 122°45'8 7.6
2015-Mar-27 00:33N 48°34' W 122°45'8 7.9
2015-Mar-26 23:33N 48°42' W 122°45'8 8.1
2015-Mar-26 22:33N 48°47' W 122°53'8 8.4
2015-Mar-26 21:34N 48°52' W 123°04'8 8.3
2015-Mar-26 20:33N 48°58' W 123°13'8 7.7
2015-Mar-26 19:34N 49°03' W 123°21'6 6.1
2015-Mar-26 18:33N 49°08' W 123°14'7 6.5
2015-Mar-26 17:33N 49°07' W 123°05'3 3.4
2015-Mar-26 16:33N 49°09' W 123°00'0 0.0
2015-Mar-26 15:33N 49°09' W 123°00'0 0.0
2015-Mar-26 14:33N 49°09' W 123°00'0 0.0
2015-Mar-26 13:33N 49°09' W 123°00'0 0.0
2015-Mar-26 12:33N 49°09' W 123°00'0 0.0
2015-Mar-26 11:33N 49°09' W 123°00'0 0.0
2015-Mar-26 10:33N 49°09' W 123°00'0 0.0
2015-Mar-26 09:33N 49°09' W 123°00'0 0.0
2015-Mar-26 08:33N 49°09' W 123°00'0 0.0
2015-Mar-26 07:33N 49°09' W 123°00'0 0.0
2015-Mar-26 06:33N 49°09' W 123°00'0 0.0
2015-Mar-26 05:33N 49°09' W 123°00'0 0.0
2015-Mar-26 04:33N 49°09' W 123°00'0 0.0
2015-Mar-26 03:30N 49°09' W 123°00'0 0.0
2015-Mar-26 02:33N 49°09' W 123°00'0 0.0
2015-Mar-26 01:33N 49°09' W 123°00'0 0.0
2015-Mar-26 00:30N 49°09' W 123°00'0 0.0
2015-Mar-25 23:30N 49°09' W 123°00'0 0.0
2015-Mar-25 22:30N 49°09' W 123°00'0 0.0
2015-Mar-25 21:33N 49°09' W 123°00'0 0.0
2015-Mar-25 20:33N 49°09' W 123°00'0 0.0
2015-Mar-25 19:33N 49°09' W 123°00'0 0.0
2015-Mar-25 18:33N 49°09' W 123°00'0 0.0
2015-Mar-25 17:33N 49°09' W 123°00'0 0.0
2015-Mar-25 16:33N 49°09' W 123°00'0 0.0
2015-Mar-25 15:33N 49°09' W 123°00'0 0.0
2015-Mar-25 14:33N 49°09' W 123°00'0 0.0
2015-Mar-25 13:30N 49°09' W 123°00'0 0.0
2015-Mar-25 12:27N 49°09' W 123°00'0 0.0
2015-Mar-25 11:33N 49°09' W 123°00'0 0.0
2015-Mar-25 10:24N 49°09' W 123°00'0 0.0
2015-Mar-25 09:33N 49°09' W 123°00'0 0.0
2015-Mar-25 08:30N 49°09' W 123°00'0 0.0
2015-Mar-25 07:29N 49°09' W 123°00'0 0.0
2015-Mar-25 06:29N 49°09' W 123°00'0 0.0
2015-Mar-25 05:29N 49°09' W 123°00'0 0.0
2015-Mar-25 04:32N 49°09' W 123°00'0 0.0
2015-Mar-25 03:29N 49°09' W 123°00'0 0.0
2015-Mar-25 02:32N 49°09' W 123°00'0 0.0
2015-Mar-25 01:32N 49°09' W 123°00'0 0.0
2015-Mar-25 00:32N 49°09' W 123°00'0 0.0
2015-Mar-24 23:29N 49°09' W 123°00'0 0.0
2015-Mar-24 22:29N 49°09' W 123°00'0 0.0
2015-Mar-24 21:29N 49°09' W 123°00'0 0.0
2015-Mar-24 20:23N 49°09' W 123°00'0 0.0
2015-Mar-24 19:29N 49°09' W 123°00'0 0.0
2015-Mar-24 18:29N 49°09' W 123°00'0 0.0
2015-Mar-24 17:32N 49°09' W 123°00'0 0.0
2015-Mar-24 16:32N 49°09' W 123°00'0 0.0
2015-Mar-24 15:29N 49°09' W 123°00'0 0.0
2015-Mar-24 14:29N 49°09' W 123°00'0 0.0
2015-Mar-24 13:29N 49°09' W 123°00'0 0.0
2015-Mar-24 12:32N 49°09' W 123°00'0 0.0
2015-Mar-24 11:32N 49°09' W 123°00'0 0.0
2015-Mar-24 10:32N 49°09' W 123°00'0 0.0
2015-Mar-24 09:29N 49°09' W 123°00'0 0.0
2015-Mar-24 08:29N 49°09' W 123°00'0 0.0
2015-Mar-24 07:32N 49°09' W 123°00'0 0.0
2015-Mar-24 06:32N 49°09' W 123°00'0 0.0
2015-Mar-24 05:29N 49°09' W 123°00'0 0.0
2015-Mar-24 04:32N 49°09' W 123°00'0 0.0
2015-Mar-24 03:26N 49°09' W 123°00'0 0.0
2015-Mar-24 02:17N 49°09' W 123°00'0 0.0
2015-Mar-24 01:29N 49°09' W 123°00'0 0.0
2015-Mar-24 00:23N 49°09' W 123°00'0 0.0
2015-Mar-23 23:29N 49°09' W 123°00'0 0.0
2015-Mar-23 22:29N 49°09' W 123°00'0 0.0
2015-Mar-23 21:32N 49°09' W 123°00'0 0.0
2015-Mar-23 20:32N 49°09' W 123°00'0 0.0
2015-Mar-23 19:31N 49°09' W 123°00'0 0.0
2015-Mar-23 18:31N 49°09' W 123°00'0 0.0
2015-Mar-23 17:28N 49°09' W 123°00'0 0.0
2015-Mar-23 16:28N 49°09' W 123°00'0 0.0
2015-Mar-23 15:16N 49°09' W 123°00'0 0.0
2015-Mar-23 14:31N 49°09' W 123°00'0 0.0
2015-Mar-23 13:31N 49°09' W 123°00'0 0.0
2015-Mar-23 12:33N 49°09' W 123°00'1 0.8
2015-Mar-23 11:33N 49°09' W 123°02'4 3.8
2015-Mar-23 10:33N 49°07' W 123°06'4 4.4
2015-Mar-23 09:33N 49°08' W 123°13'5 4.5
2015-Mar-23 08:34N 49°06' W 123°19'4 4.4
2015-Mar-23 07:33N 49°02' W 123°16'5 4.6
2015-Mar-23 06:33N 48°59' W 123°11'6 5.6
2015-Mar-23 05:33N 48°55' W 123°04'7 7.5
2015-Mar-23 04:33N 48°50' W 122°56'9 8.9
2015-Mar-23 03:31N 48°44' W 122°45'8 8.5
2015-Mar-23 02:33N 48°36' W 122°45'1110.5
2015-Mar-23 01:32N 48°26' W 122°44'10 8.5
2015-Mar-23 00:19N 48°15' W 122°47'5 5.7
2015-Mar-22 23:29N 48°11' W 122°44'5 4.6
2015-Mar-22 22:29N 48°08' W 122°39'6 6.9
2015-Mar-22 21:33N 48°02' W 122°37'5 7.5
2015-Mar-22 20:55N 47°58' W 122°33'3 8.4
2015-Mar-22 20:33N 47°56' W 122°29'1 7.7
2015-Mar-22 20:25N 47°55' W 122°28'8 8.8
2015-Mar-22 19:33N 47°48' W 122°26'0 8.4
2015-Mar-22 19:31N 47°47' W 122°26'9 9.0
2015-Mar-22 18:33N 47°39' W 122°27'0 7.9
2015-Mar-22 18:31N 47°38' W 122°26'5 5.6
2015-Mar-22 17:33N 47°34' W 122°21'0 3.9
2015-Mar-22 17:31N 47°34' W 122°21'1 0.8
2015-Mar-22 16:33N 47°33' W 122°21'0 0.0
2015-Mar-22 16:30N 47°33' W 122°21'0 0.0
2015-Mar-22 15:33N 47°33' W 122°21'0 0.0
2015-Mar-22 15:30N 47°33' W 122°21'0 0.0
2015-Mar-22 14:33N 47°33' W 122°21'0 0.0
2015-Mar-22 14:30N 47°33' W 122°21'0 0.0
2015-Mar-22 13:33N 47°33' W 122°21'0 0.0
2015-Mar-22 13:30N 47°33' W 122°21'0 0.0
2015-Mar-22 12:33N 47°33' W 122°21'0 0.1
2015-Mar-22 12:30N 47°33' W 122°21'0 0.0
2015-Mar-22 11:33N 47°33' W 122°21'0 0.0
2015-Mar-22 11:30N 47°33' W 122°21'0 0.0
2015-Mar-22 10:33N 47°33' W 122°21'0 0.0
2015-Mar-22 10:14N 47°33' W 122°21'0 0.0
2015-Mar-22 09:33N 47°33' W 122°21'0 0.0
2015-Mar-22 09:29N 47°33' W 122°21'0 0.0
2015-Mar-22 08:23N 47°33' W 122°21'0 0.0
2015-Mar-22 06:49N 47°33' W 122°21'0 0.0
2015-Mar-22 06:18N 47°33' W 122°21'0 0.0
2015-Mar-22 06:18N 47°33' W 122°21'0 0.0
2015-Mar-22 05:54N 47°33' W 122°21'0 0.0
2015-Mar-22 05:33N 47°33' W 122°21'0 0.0
2015-Mar-22 04:33N 47°33' W 122°21'0 0.2
2015-Mar-22 04:29N 47°33' W 122°21'0 0.0
2015-Mar-22 03:33N 47°33' W 122°21'0 0.0
2015-Mar-22 03:29N 47°33' W 122°21'0 0.0
2015-Mar-22 02:34N 47°33' W 122°21'0 0.0
2015-Mar-22 02:32N 47°33' W 122°21'0 0.0
2015-Mar-22 01:33N 47°33' W 122°21'0 0.0
2015-Mar-22 01:33N 47°33' W 122°21'0 0.0
2015-Mar-22 00:33N 47°33' W 122°21'0 0.0
2015-Mar-22 00:32N 47°33' W 122°21'0 0.0
2015-Mar-21 23:33N 47°33' W 122°21'0 0.0
2015-Mar-21 23:32N 47°33' W 122°21'0 0.0
2015-Mar-21 22:31N 47°33' W 122°21'0 0.7
2015-Mar-21 22:31N 47°33' W 122°21'0 0.0
2015-Mar-21 21:33N 47°33' W 122°21'0 0.2
2015-Mar-21 21:32N 47°33' W 122°21'0 0.0
2015-Mar-21 20:33N 47°33' W 122°21'0 0.0
2015-Mar-21 20:32N 47°33' W 122°21'0 0.0
2015-Mar-21 19:32N 47°33' W 122°21'0 0.0
2015-Mar-21 19:32N 47°33' W 122°21'0 0.0
2015-Mar-21 18:33N 47°33' W 122°21'0 0.2
2015-Mar-21 18:32N 47°33' W 122°21'0 0.0
2015-Mar-21 17:26N 47°33' W 122°21'0 0.0
2015-Mar-21 17:25N 47°33' W 122°21'0 0.0
2015-Mar-21 16:33N 47°33' W 122°21'0 0.1
2015-Mar-21 16:31N 47°33' W 122°21'0 0.0
2015-Mar-21 15:33N 47°33' W 122°21'0 0.0
2015-Mar-21 15:31N 47°33' W 122°21'0 0.0
2015-Mar-21 14:33N 47°33' W 122°21'0 0.0
2015-Mar-21 14:30N 47°33' W 122°21'0 0.0
2015-Mar-21 13:33N 47°33' W 122°21'0 0.0
2015-Mar-21 13:29N 47°33' W 122°21'0 0.0
2015-Mar-21 12:33N 47°33' W 122°21'0 0.1
2015-Mar-21 12:30N 47°33' W 122°21'0 0.0
2015-Mar-21 11:33N 47°33' W 122°21'0 0.0
2015-Mar-21 11:29N 47°33' W 122°21'0 0.0
2015-Mar-21 10:33N 47°33' W 122°21'0 0.0
2015-Mar-21 10:29N 47°33' W 122°21'0 0.0
2015-Mar-21 09:30N 47°33' W 122°21'0 0.0
2015-Mar-21 09:03N 47°33' W 122°21'0 0.0
2015-Mar-21 08:33N 47°33' W 122°21'0 0.0
2015-Mar-21 08:33N 47°33' W 122°21'0 0.0
2015-Mar-21 07:10N 47°33' W 122°21'0 0.0
2015-Mar-21 07:02N 47°33' W 122°21'0 0.0
2015-Mar-21 06:29N 47°33' W 122°21'0 0.0
2015-Mar-21 06:27N 47°33' W 122°21'0 0.0
2015-Mar-21 06:07N 47°33' W 122°21'0 0.0
2015-Mar-21 05:32N 47°33' W 122°21'0 0.0
2015-Mar-21 04:33N 47°33' W 122°21'0 0.0
2015-Mar-21 04:32N 47°33' W 122°21'0 0.0
2015-Mar-21 03:33N 47°33' W 122°21'0 0.6
2015-Mar-21 03:32N 47°33' W 122°21'0 0.0
2015-Mar-21 02:33N 47°33' W 122°21'0 0.0
2015-Mar-21 02:32N 47°33' W 122°21'0 0.0
2015-Mar-21 01:31N 47°33' W 122°21'0 0.0
2015-Mar-21 01:31N 47°33' W 122°21'0 0.0
2015-Mar-21 00:33N 47°33' W 122°21'0 0.2
2015-Mar-21 00:31N 47°33' W 122°21'0 0.0
2015-Mar-20 23:33N 47°33' W 122°21'0 0.1
2015-Mar-20 23:31N 47°33' W 122°21'0 0.0
2015-Mar-20 22:32N 47°33' W 122°21'0 0.0
2015-Mar-20 22:30N 47°33' W 122°21'0 0.0
2015-Mar-20 21:29N 47°33' W 122°21'0 0.1
2015-Mar-20 21:25N 47°33' W 122°21'0 0.0
2015-Mar-20 20:32N 47°33' W 122°21'0 0.0
2015-Mar-20 20:29N 47°33' W 122°21'0 0.0
2015-Mar-20 19:31N 47°33' W 122°21'0 0.1
2015-Mar-20 19:24N 47°33' W 122°21'0 0.1
2015-Mar-20 18:31N 47°33' W 122°21'0 0.1
2015-Mar-20 18:19N 47°33' W 122°21'0 0.0
2015-Mar-20 17:28N 47°33' W 122°21'0 0.0
2015-Mar-20 17:18N 47°33' W 122°21'0 0.0
2015-Mar-20 16:34N 47°33' W 122°21'0 0.0
2015-Mar-20 16:33N 47°33' W 122°21'0 0.0
2015-Mar-20 15:33N 47°33' W 122°21'0 0.0
2015-Mar-20 15:29N 47°33' W 122°21'0 0.0
2015-Mar-20 14:33N 47°33' W 122°21'0 0.0
2015-Mar-20 14:29N 47°33' W 122°21'0 0.0
2015-Mar-20 13:33N 47°33' W 122°21'0 0.0
2015-Mar-20 13:29N 47°33' W 122°21'0 0.0
2015-Mar-20 12:34N 47°33' W 122°21'0 0.0
2015-Mar-20 12:33N 47°33' W 122°21'0 0.0
2015-Mar-20 11:34N 47°33' W 122°21'0 0.0
2015-Mar-20 11:33N 47°33' W 122°21'0 0.0
2015-Mar-20 10:33N 47°33' W 122°21'0 0.0
2015-Mar-20 10:33N 47°33' W 122°21'0 0.0
2015-Mar-20 09:33N 47°33' W 122°21'0 0.0
2015-Mar-20 09:33N 47°33' W 122°21'0 0.0
2015-Mar-20 08:13N 47°33' W 122°21'0 0.0
2015-Mar-20 08:13N 47°33' W 122°21'0 0.0
2015-Mar-20 07:22N 47°33' W 122°21'0 0.0
2015-Mar-20 07:18N 47°33' W 122°21'0 0.0
2015-Mar-20 06:33N 47°33' W 122°21'0 0.5
2015-Mar-20 06:33N 47°33' W 122°21'0 0.0
2015-Mar-20 06:12N 47°33' W 122°21'0 0.0
2015-Mar-20 05:23N 47°33' W 122°21'0 0.0
2015-Mar-20 04:33N 47°33' W 122°21'0 0.5
2015-Mar-20 04:33N 47°33' W 122°21'0 0.0
2015-Mar-20 02:40N 47°33' W 122°21'0 0.0
2015-Mar-20 02:33N 47°33' W 122°21'0 0.0
2015-Mar-20 02:30N 47°33' W 122°21'0 0.0
2015-Mar-20 01:11N 47°33' W 122°21'0 0.1
2015-Mar-20 01:08N 47°33' W 122°21'0 0.0
2015-Mar-20 00:33N 47°33' W 122°21'0 0.0
2015-Mar-20 00:33N 47°33' W 122°21'0 0.0
2015-Mar-19 23:32N 47°33' W 122°21'0 0.0
2015-Mar-19 23:23N 47°33' W 122°21'0 0.0
2015-Mar-19 22:33N 47°33' W 122°21'0 0.0
2015-Mar-19 22:33N 47°33' W 122°21'0 0.0
2015-Mar-19 21:27N 47°33' W 122°21'0 0.0
2015-Mar-19 21:27N 47°33' W 122°21'0 0.0
2015-Mar-19 20:33N 47°33' W 122°21'0 0.5
2015-Mar-19 20:33N 47°33' W 122°21'0 0.0
2015-Mar-19 19:33N 47°33' W 122°21'0 0.0
2015-Mar-19 19:32N 47°33' W 122°21'0 0.0
2015-Mar-19 18:33N 47°33' W 122°21'0 0.0
2015-Mar-19 18:32N 47°33' W 122°21'0 0.0
2015-Mar-19 17:33N 47°33' W 122°21'0 0.0
2015-Mar-19 17:32N 47°33' W 122°21'0 0.0
2015-Mar-19 16:33N 47°33' W 122°21'0 0.0
2015-Mar-19 16:32N 47°33' W 122°21'0 0.0
2015-Mar-19 15:31N 47°33' W 122°21'0 0.0
2015-Mar-19 15:31N 47°33' W 122°21'0 0.0
2015-Mar-19 14:33N 47°33' W 122°21'0 0.0
2015-Mar-19 14:31N 47°33' W 122°21'0 0.0
2015-Mar-19 13:33N 47°33' W 122°21'0 0.0
2015-Mar-19 13:29N 47°33' W 122°21'0 0.0
2015-Mar-19 12:32N 47°33' W 122°21'0 0.0
2015-Mar-19 12:30N 47°33' W 122°21'0 0.0
2015-Mar-19 11:33N 47°33' W 122°21'0 0.0
2015-Mar-19 11:30N 47°33' W 122°21'0 0.0
2015-Mar-19 10:33N 47°33' W 122°21'0 0.0
2015-Mar-19 10:30N 47°33' W 122°21'0 0.0
2015-Mar-19 09:14N 47°33' W 122°21'0 0.0
2015-Mar-19 09:14N 47°33' W 122°21'0 0.0
2015-Mar-19 08:33N 47°33' W 122°21'0 0.0
2015-Mar-19 08:29N 47°33' W 122°21'0 0.0
2015-Mar-19 07:27N 47°33' W 122°21'0 0.2
2015-Mar-19 07:24N 47°33' W 122°21'0 0.0
2015-Mar-19 06:33N 47°33' W 122°21'0 0.0
2015-Mar-19 06:03N 47°33' W 122°21'0 0.0
2015-Mar-19 05:27N 47°33' W 122°21'0 0.0
2015-Mar-19 04:30N 47°33' W 122°21'0 0.4
2015-Mar-19 04:29N 47°33' W 122°21'0 0.0
2015-Mar-19 03:30N 47°33' W 122°21'0 0.8
2015-Mar-19 03:29N 47°33' W 122°21'0 0.0
2015-Mar-19 02:30N 47°33' W 122°21'0 0.2
2015-Mar-19 02:29N 47°33' W 122°21'0 0.0
2015-Mar-19 01:32N 47°33' W 122°21'0 0.1
2015-Mar-19 01:29N 47°33' W 122°21'0 0.0
2015-Mar-19 00:29N 47°33' W 122°21'0 0.0
2015-Mar-19 00:28N 47°33' W 122°21'0 0.0
2015-Mar-18 23:32N 47°33' W 122°21'0 0.0
2015-Mar-18 23:27N 47°33' W 122°21'0 0.0
2015-Mar-18 22:29N 47°33' W 122°21'0 0.0
2015-Mar-18 22:28N 47°33' W 122°21'0 0.0
2015-Mar-18 21:32N 47°33' W 122°21'0 0.3
2015-Mar-18 21:23N 47°33' W 122°21'0 0.0
2015-Mar-18 20:32N 47°33' W 122°21'0 0.1
2015-Mar-18 20:28N 47°33' W 122°21'0 0.0
2015-Mar-18 19:24N 47°33' W 122°21'0 0.0
2015-Mar-18 19:22N 47°33' W 122°21'0 0.0
2015-Mar-18 18:33N 47°33' W 122°21'0 0.0
2015-Mar-18 18:27N 47°33' W 122°21'0 0.0
2015-Mar-18 17:33N 47°33' W 122°21'0 0.0
2015-Mar-18 17:32N 47°33' W 122°21'0 0.0
2015-Mar-18 16:33N 47°33' W 122°21'0 0.0
2015-Mar-18 16:27N 47°33' W 122°21'0 0.0
2015-Mar-18 15:33N 47°33' W 122°21'0 0.1
2015-Mar-18 15:31N 47°33' W 122°21'0 0.0
2015-Mar-18 14:33N 47°33' W 122°21'0 0.0
2015-Mar-18 14:31N 47°33' W 122°21'0 0.0
2015-Mar-18 13:33N 47°33' W 122°21'0 0.0
2015-Mar-18 13:31N 47°33' W 122°21'0 0.0
2015-Mar-18 12:33N 47°33' W 122°21'0 0.2
2015-Mar-18 12:31N 47°33' W 122°21'0 0.0
2015-Mar-18 11:33N 47°33' W 122°21'0 0.0
2015-Mar-18 11:31N 47°33' W 122°21'0 0.0
2015-Mar-18 10:33N 47°33' W 122°21'0 0.0
2015-Mar-18 10:26N 47°33' W 122°21'0 0.0
2015-Mar-18 08:32N 47°33' W 122°21'0 0.0
2015-Mar-18 08:13N 47°33' W 122°21'0 0.0
2015-Mar-18 07:33N 47°33' W 122°21'0 0.0
2015-Mar-18 07:33N 47°33' W 122°21'0 0.0
2015-Mar-18 06:33N 47°33' W 122°21'0 0.4
2015-Mar-18 06:33N 47°33' W 122°21'0 0.0
2015-Mar-18 06:13N 47°33' W 122°21'0 0.0
2015-Mar-18 05:33N 47°33' W 122°21'0 0.0
2015-Mar-18 04:33N 47°33' W 122°21'0 0.6
2015-Mar-18 04:32N 47°33' W 122°21'0 0.0
2015-Mar-18 03:33N 47°33' W 122°21'0 0.0
2015-Mar-18 03:32N 47°33' W 122°21'0 0.0
2015-Mar-18 02:33N 47°33' W 122°21'0 0.0
2015-Mar-18 02:32N 47°33' W 122°21'0 0.0
2015-Mar-18 00:25N 47°33' W 122°21'0 0.0
2015-Mar-18 00:25N 47°33' W 122°21'0 0.0
2015-Mar-17 23:33N 47°33' W 122°21'0 0.0
2015-Mar-17 23:26N 47°33' W 122°21'0 0.0
2015-Mar-17 22:33N 47°33' W 122°21'0 0.0
2015-Mar-17 22:31N 47°33' W 122°21'0 0.0
2015-Mar-17 21:33N 47°33' W 122°21'0 0.1
2015-Mar-17 21:31N 47°33' W 122°21'0 0.0
2015-Mar-17 20:33N 47°33' W 122°21'0 0.0
2015-Mar-17 20:30N 47°33' W 122°21'0 0.0
2015-Mar-17 19:33N 47°33' W 122°21'0 0.0
2015-Mar-17 19:31N 47°33' W 122°21'0 0.0
2015-Mar-17 18:33N 47°33' W 122°21'0 0.0
2015-Mar-17 18:31N 47°33' W 122°21'0 0.0
2015-Mar-17 17:33N 47°33' W 122°21'0 0.0
2015-Mar-17 17:30N 47°33' W 122°21'0 0.0
2015-Mar-17 16:33N 47°33' W 122°21'0 0.0
2015-Mar-17 16:29N 47°33' W 122°21'  
Track history (hours):
 
Tides and Currents Weather Stations Pressure Air Temp Water Temp Dewpoint Dewpoint Depression Visibility Wind Speed Wind Dir Waves Ship Positions

M. Luther

Owner: Salmon Bay Barge Line, Inc., Seattle, WA. More information available from US FCC via Universal Licensing System and Coast Guard Vessel Documentation Center.

Last reported at 2015-Mar-27 16:08 UTC. Time now 2015-Mar-28 00:37 UTC.
Position N 47°33' W 122°21'.

Length 28 m; draft 4.1 m.

Type: Tug. MMSI: 367070410.

Date/timePositionNaut miles runAvg speedWind from/ knotsBaromVisibWave heightAir tempDewpointWater temp
2015-Mar-27 16:08N 47°33' W 122°21'0 0.2
2015-Mar-27 16:05N 47°33' W 122°21'0 0.0
2015-Mar-27 15:23N 47°33' W 122°21'0 0.0
2015-Mar-27 14:20N 47°33' W 122°21'0 0.0
2015-Mar-27 14:00N 47°33' W 122°21'0 0.1
2015-Mar-27 13:33N 47°33' W 122°21'0 1.3
2015-Mar-27 13:30N 47°33' W 122°21'3 2.7
2015-Mar-27 12:33N 47°36' W 122°23'0 2.0
2015-Mar-27 12:30N 47°36' W 122°23'3 2.8
2015-Mar-27 11:33N 47°37' W 122°26'0 3.0
2015-Mar-27 11:29N 47°37' W 122°26'3 3.3
2015-Mar-27 10:34N 47°40' W 122°29'0 2.8
2015-Mar-27 10:30N 47°40' W 122°29'3 3.5
2015-Mar-27 09:33N 47°43' W 122°28'0 3.1
2015-Mar-27 09:30N 47°43' W 122°28'3 3.5
2015-Mar-27 08:33N 47°47' W 122°28'0 3.1
2015-Mar-27 08:30N 47°47' W 122°28'4 4.2
2015-Mar-27 07:34N 47°51' W 122°29'0 3.9
2015-Mar-27 07:30N 47°51' W 122°29'4 4.4
2015-Mar-27 06:33N 47°55' W 122°31'5 5.3
2015-Mar-27 05:34N 47°59' W 122°37'6 5.8
2015-Mar-27 04:33N 48°04' W 122°40'9 8.8
2015-Mar-27 03:33N 48°12' W 122°46'7 7.2
2015-Mar-27 02:31N 48°19' W 122°47'7 7.2
2015-Mar-27 01:33N 48°26' W 122°45'8 7.6
2015-Mar-27 00:33N 48°34' W 122°45'8 7.9
2015-Mar-26 23:33N 48°42' W 122°45'8 8.1
2015-Mar-26 22:33N 48°47' W 122°53'8 8.4
2015-Mar-26 21:34N 48°52' W 123°04'8 8.3
2015-Mar-26 20:33N 48°58' W 123°13'8 7.7
2015-Mar-26 19:34N 49°03' W 123°21'6 6.1
2015-Mar-26 18:33N 49°08' W 123°14'7 6.5
2015-Mar-26 17:33N 49°07' W 123°05'3 3.4
2015-Mar-26 16:33N 49°09' W 123°00'0 0.0
2015-Mar-26 15:33N 49°09' W 123°00'0 0.0
2015-Mar-26 14:33N 49°09' W 123°00'0 0.0
2015-Mar-26 13:33N 49°09' W 123°00'0 0.0
2015-Mar-26 12:33N 49°09' W 123°00'0 0.0
2015-Mar-26 11:33N 49°09' W 123°00'0 0.0
2015-Mar-26 10:33N 49°09' W 123°00'0 0.0
2015-Mar-26 09:33N 49°09' W 123°00'0 0.0
2015-Mar-26 08:33N 49°09' W 123°00'0 0.0
2015-Mar-26 07:33N 49°09' W 123°00'0 0.0
2015-Mar-26 06:33N 49°09' W 123°00'0 0.0
2015-Mar-26 05:33N 49°09' W 123°00'0 0.0
2015-Mar-26 04:33N 49°09' W 123°00'0 0.0
2015-Mar-26 03:30N 49°09' W 123°00'0 0.0
2015-Mar-26 02:33N 49°09' W 123°00'0 0.0
2015-Mar-26 01:33N 49°09' W 123°00'0 0.0
2015-Mar-26 00:30N 49°09' W 123°00'0 0.0
2015-Mar-25 23:30N 49°09' W 123°00'0 0.0
2015-Mar-25 22:30N 49°09' W 123°00'0 0.0
2015-Mar-25 21:33N 49°09' W 123°00'0 0.0
2015-Mar-25 20:33N 49°09' W 123°00'0 0.0
2015-Mar-25 19:33N 49°09' W 123°00'0 0.0
2015-Mar-25 18:33N 49°09' W 123°00'0 0.0
2015-Mar-25 17:33N 49°09' W 123°00'0 0.0
2015-Mar-25 16:33N 49°09' W 123°00'0 0.0
2015-Mar-25 15:33N 49°09' W 123°00'0 0.0
2015-Mar-25 14:33N 49°09' W 123°00'0 0.0
2015-Mar-25 13:30N 49°09' W 123°00'0 0.0
2015-Mar-25 12:27N 49°09' W 123°00'0 0.0
2015-Mar-25 11:33N 49°09' W 123°00'0 0.0
2015-Mar-25 10:24N 49°09' W 123°00'0 0.0
2015-Mar-25 09:33N 49°09' W 123°00'0 0.0
2015-Mar-25 08:30N 49°09' W 123°00'0 0.0
2015-Mar-25 07:29N 49°09' W 123°00'0 0.0
2015-Mar-25 06:29N 49°09' W 123°00'0 0.0
2015-Mar-25 05:29N 49°09' W 123°00'0 0.0
2015-Mar-25 04:32N 49°09' W 123°00'0 0.0
2015-Mar-25 03:29N 49°09' W 123°00'0 0.0
2015-Mar-25 02:32N 49°09' W 123°00'0 0.0
2015-Mar-25 01:32N 49°09' W 123°00'0 0.0
2015-Mar-25 00:32N 49°09' W 123°00'0 0.0
2015-Mar-24 23:29N 49°09' W 123°00'0 0.0
2015-Mar-24 22:29N 49°09' W 123°00'0 0.0
2015-Mar-24 21:29N 49°09' W 123°00'0 0.0
2015-Mar-24 20:23N 49°09' W 123°00'0 0.0
2015-Mar-24 19:29N 49°09' W 123°00'0 0.0
2015-Mar-24 18:29N 49°09' W 123°00'0 0.0
2015-Mar-24 17:32N 49°09' W 123°00'0 0.0
2015-Mar-24 16:32N 49°09' W 123°00'0 0.0
2015-Mar-24 15:29N 49°09' W 123°00'0 0.0
2015-Mar-24 14:29N 49°09' W 123°00'0 0.0
2015-Mar-24 13:29N 49°09' W 123°00'0 0.0
2015-Mar-24 12:32N 49°09' W 123°00'0 0.0
2015-Mar-24 11:32N 49°09' W 123°00'0 0.0
2015-Mar-24 10:32N 49°09' W 123°00'0 0.0
2015-Mar-24 09:29N 49°09' W 123°00'0 0.0
2015-Mar-24 08:29N 49°09' W 123°00'0 0.0
2015-Mar-24 07:32N 49°09' W 123°00'0 0.0
2015-Mar-24 06:32N 49°09' W 123°00'0 0.0
2015-Mar-24 05:29N 49°09' W 123°00'0 0.0
2015-Mar-24 04:32N 49°09' W 123°00'0 0.0
2015-Mar-24 03:26N 49°09' W 123°00'0 0.0
2015-Mar-24 02:17N 49°09' W 123°00'0 0.0
2015-Mar-24 01:29N 49°09' W 123°00'0 0.0
2015-Mar-24 00:23N 49°09' W 123°00'0 0.0
2015-Mar-23 23:29N 49°09' W 123°00'0 0.0
2015-Mar-23 22:29N 49°09' W 123°00'0 0.0
2015-Mar-23 21:32N 49°09' W 123°00'0 0.0
2015-Mar-23 20:32N 49°09' W 123°00'0 0.0
2015-Mar-23 19:31N 49°09' W 123°00'0 0.0
2015-Mar-23 18:31N 49°09' W 123°00'0 0.0
2015-Mar-23 17:28N 49°09' W 123°00'0 0.0
2015-Mar-23 16:28N 49°09' W 123°00'0 0.0
2015-Mar-23 15:16N 49°09' W 123°00'0 0.0
2015-Mar-23 14:31N 49°09' W 123°00'0 0.0
2015-Mar-23 13:31N 49°09' W 123°00'0 0.0
2015-Mar-23 12:33N 49°09' W 123°00'1 0.8
2015-Mar-23 11:33N 49°09' W 123°02'4 3.8
2015-Mar-23 10:33N 49°07' W 123°06'4 4.4
2015-Mar-23 09:33N 49°08' W 123°13'5 4.5
2015-Mar-23 08:34N 49°06' W 123°19'4 4.4
2015-Mar-23 07:33N 49°02' W 123°16'5 4.6
2015-Mar-23 06:33N 48°59' W 123°11'6 5.6
2015-Mar-23 05:33N 48°55' W 123°04'7 7.5
2015-Mar-23 04:33N 48°50' W 122°56'9 8.9
2015-Mar-23 03:31N 48°44' W 122°45'8 8.5
2015-Mar-23 02:33N 48°36' W 122°45'1110.5
2015-Mar-23 01:32N 48°26' W 122°44'10 8.5
2015-Mar-23 00:19N 48°15' W 122°47'5 5.7
2015-Mar-22 23:29N 48°11' W 122°44'5 4.6
2015-Mar-22 22:29N 48°08' W 122°39'6 6.9
2015-Mar-22 21:33N 48°02' W 122°37'5 7.5
2015-Mar-22 20:55N 47°58' W 122°33'3 8.4
2015-Mar-22 20:33N 47°56' W 122°29'1 7.7
2015-Mar-22 20:25N 47°55' W 122°28'8 8.8
2015-Mar-22 19:33N 47°48' W 122°26'0 8.4
2015-Mar-22 19:31N 47°47' W 122°26'9 9.0
2015-Mar-22 18:33N 47°39' W 122°27'0 7.9
2015-Mar-22 18:31N 47°38' W 122°26'5 5.6
2015-Mar-22 17:33N 47°34' W 122°21'0 3.9
2015-Mar-22 17:31N 47°34' W 122°21'1 0.8
2015-Mar-22 16:33N 47°33' W 122°21'0 0.0
2015-Mar-22 16:30N 47°33' W 122°21'0 0.0
2015-Mar-22 15:33N 47°33' W 122°21'0 0.0
2015-Mar-22 15:30N 47°33' W 122°21'0 0.0
2015-Mar-22 14:33N 47°33' W 122°21'0 0.0
2015-Mar-22 14:30N 47°33' W 122°21'0 0.0
2015-Mar-22 13:33N 47°33' W 122°21'0 0.0
2015-Mar-22 13:30N 47°33' W 122°21'0 0.0
2015-Mar-22 12:33N 47°33' W 122°21'0 0.1
2015-Mar-22 12:30N 47°33' W 122°21'0 0.0
2015-Mar-22 11:33N 47°33' W 122°21'0 0.0
2015-Mar-22 11:30N 47°33' W 122°21'0 0.0
2015-Mar-22 10:33N 47°33' W 122°21'0 0.0
2015-Mar-22 10:14N 47°33' W 122°21'0 0.0
2015-Mar-22 09:33N 47°33' W 122°21'0 0.0
2015-Mar-22 09:29N 47°33' W 122°21'0 0.0
2015-Mar-22 08:23N 47°33' W 122°21'0 0.0
2015-Mar-22 06:49N 47°33' W 122°21'0 0.0
2015-Mar-22 06:18N 47°33' W 122°21'0 0.0
2015-Mar-22 06:18N 47°33' W 122°21'0 0.0
2015-Mar-22 05:54N 47°33' W 122°21'0 0.0
2015-Mar-22 05:33N 47°33' W 122°21'0 0.0
2015-Mar-22 04:33N 47°33' W 122°21'0 0.2
2015-Mar-22 04:29N 47°33' W 122°21'0 0.0
2015-Mar-22 03:33N 47°33' W 122°21'0 0.0
2015-Mar-22 03:29N 47°33' W 122°21'0 0.0
2015-Mar-22 02:34N 47°33' W 122°21'0 0.0
2015-Mar-22 02:32N 47°33' W 122°21'0 0.0
2015-Mar-22 01:33N 47°33' W 122°21'0 0.0
2015-Mar-22 01:33N 47°33' W 122°21'0 0.0
2015-Mar-22 00:33N 47°33' W 122°21'0 0.0
2015-Mar-22 00:32N 47°33' W 122°21'0 0.0
2015-Mar-21 23:33N 47°33' W 122°21'0 0.0
2015-Mar-21 23:32N 47°33' W 122°21'0 0.0
2015-Mar-21 22:31N 47°33' W 122°21'0 0.7
2015-Mar-21 22:31N 47°33' W 122°21'0 0.0
2015-Mar-21 21:33N 47°33' W 122°21'0 0.2
2015-Mar-21 21:32N 47°33' W 122°21'0 0.0
2015-Mar-21 20:33N 47°33' W 122°21'0 0.0
2015-Mar-21 20:32N 47°33' W 122°21'0 0.0
2015-Mar-21 19:32N 47°33' W 122°21'0 0.0
2015-Mar-21 19:32N 47°33' W 122°21'0 0.0
2015-Mar-21 18:33N 47°33' W 122°21'0 0.2
2015-Mar-21 18:32N 47°33' W 122°21'0 0.0
2015-Mar-21 17:26N 47°33' W 122°21'0 0.0
2015-Mar-21 17:25N 47°33' W 122°21'0 0.0
2015-Mar-21 16:33N 47°33' W 122°21'0 0.1
2015-Mar-21 16:31N 47°33' W 122°21'0 0.0
2015-Mar-21 15:33N 47°33' W 122°21'0 0.0
2015-Mar-21 15:31N 47°33' W 122°21'0 0.0
2015-Mar-21 14:33N 47°33' W 122°21'0 0.0
2015-Mar-21 14:30N 47°33' W 122°21'0 0.0
2015-Mar-21 13:33N 47°33' W 122°21'0 0.0
2015-Mar-21 13:29N 47°33' W 122°21'0 0.0
2015-Mar-21 12:33N 47°33' W 122°21'0 0.1
2015-Mar-21 12:30N 47°33' W 122°21'0 0.0
2015-Mar-21 11:33N 47°33' W 122°21'0 0.0
2015-Mar-21 11:29N 47°33' W 122°21'0 0.0
2015-Mar-21 10:33N 47°33' W 122°21'0 0.0
2015-Mar-21 10:29N 47°33' W 122°21'0 0.0
2015-Mar-21 09:30N 47°33' W 122°21'0 0.0
2015-Mar-21 09:03N 47°33' W 122°21'0 0.0
2015-Mar-21 08:33N 47°33' W 122°21'0 0.0
2015-Mar-21 08:33N 47°33' W 122°21'0 0.0
2015-Mar-21 07:10N 47°33' W 122°21'0 0.0
2015-Mar-21 07:02N 47°33' W 122°21'0 0.0
2015-Mar-21 06:29N 47°33' W 122°21'0 0.0
2015-Mar-21 06:27N 47°33' W 122°21'0 0.0
2015-Mar-21 06:07N 47°33' W 122°21'0 0.0
2015-Mar-21 05:32N 47°33' W 122°21'0 0.0
2015-Mar-21 04:33N 47°33' W 122°21'0 0.0
2015-Mar-21 04:32N 47°33' W 122°21'0 0.0
2015-Mar-21 03:33N 47°33' W 122°21'0 0.6
2015-Mar-21 03:32N 47°33' W 122°21'0 0.0
2015-Mar-21 02:33N 47°33' W 122°21'0 0.0
2015-Mar-21 02:32N 47°33' W 122°21'0 0.0
2015-Mar-21 01:31N 47°33' W 122°21'0 0.0
2015-Mar-21 01:31N 47°33' W 122°21'0 0.0
2015-Mar-21 00:33N 47°33' W 122°21'0 0.2
2015-Mar-21 00:31N 47°33' W 122°21'0 0.0
2015-Mar-20 23:33N 47°33' W 122°21'0 0.1
2015-Mar-20 23:31N 47°33' W 122°21'0 0.0
2015-Mar-20 22:32N 47°33' W 122°21'0 0.0
2015-Mar-20 22:30N 47°33' W 122°21'0 0.0
2015-Mar-20 21:29N 47°33' W 122°21'0 0.1
2015-Mar-20 21:25N 47°33' W 122°21'0 0.0
2015-Mar-20 20:32N 47°33' W 122°21'0 0.0
2015-Mar-20 20:29N 47°33' W 122°21'0 0.0
2015-Mar-20 19:31N 47°33' W 122°21'0 0.1
2015-Mar-20 19:24N 47°33' W 122°21'0 0.1
2015-Mar-20 18:31N 47°33' W 122°21'0 0.1
2015-Mar-20 18:19N 47°33' W 122°21'0 0.0
2015-Mar-20 17:28N 47°33' W 122°21'0 0.0
2015-Mar-20 17:18N 47°33' W 122°21'0 0.0
2015-Mar-20 16:34N 47°33' W 122°21'0 0.0
2015-Mar-20 16:33N 47°33' W 122°21'0 0.0
2015-Mar-20 15:33N 47°33' W 122°21'0 0.0
2015-Mar-20 15:29N 47°33' W 122°21'0 0.0
2015-Mar-20 14:33N 47°33' W 122°21'0 0.0
2015-Mar-20 14:29N 47°33' W 122°21'0 0.0
2015-Mar-20 13:33N 47°33' W 122°21'0 0.0
2015-Mar-20 13:29N 47°33' W 122°21'0 0.0
2015-Mar-20 12:34N 47°33' W 122°21'0 0.0
2015-Mar-20 12:33N 47°33' W 122°21'0 0.0
2015-Mar-20 11:34N 47°33' W 122°21'0 0.0
2015-Mar-20 11:33N 47°33' W 122°21'0 0.0
2015-Mar-20 10:33N 47°33' W 122°21'0 0.0
2015-Mar-20 10:33N 47°33' W 122°21'0 0.0
2015-Mar-20 09:33N 47°33' W 122°21'0 0.0
2015-Mar-20 09:33N 47°33' W 122°21'0 0.0
2015-Mar-20 08:13N 47°33' W 122°21'0 0.0
2015-Mar-20 08:13N 47°33' W 122°21'0 0.0
2015-Mar-20 07:22N 47°33' W 122°21'0 0.0
2015-Mar-20 07:18N 47°33' W 122°21'0 0.0
2015-Mar-20 06:33N 47°33' W 122°21'0 0.5
2015-Mar-20 06:33N 47°33' W 122°21'0 0.0
2015-Mar-20 06:12N 47°33' W 122°21'0 0.0
2015-Mar-20 05:23N 47°33' W 122°21'0 0.0
2015-Mar-20 04:33N 47°33' W 122°21'0 0.5
2015-Mar-20 04:33N 47°33' W 122°21'0 0.0
2015-Mar-20 02:40N 47°33' W 122°21'0 0.0
2015-Mar-20 02:33N 47°33' W 122°21'0 0.0
2015-Mar-20 02:30N 47°33' W 122°21'0 0.0
2015-Mar-20 01:11N 47°33' W 122°21'0 0.1
2015-Mar-20 01:08N 47°33' W 122°21'0 0.0
2015-Mar-20 00:33N 47°33' W 122°21'0 0.0
2015-Mar-20 00:33N 47°33' W 122°21'0 0.0
2015-Mar-19 23:32N 47°33' W 122°21'0 0.0
2015-Mar-19 23:23N 47°33' W 122°21'0 0.0
2015-Mar-19 22:33N 47°33' W 122°21'0 0.0
2015-Mar-19 22:33N 47°33' W 122°21'0 0.0
2015-Mar-19 21:27N 47°33' W 122°21'0 0.0
2015-Mar-19 21:27N 47°33' W 122°21'0 0.0
2015-Mar-19 20:33N 47°33' W 122°21'0 0.5
2015-Mar-19 20:33N 47°33' W 122°21'0 0.0
2015-Mar-19 19:33N 47°33' W 122°21'0 0.0
2015-Mar-19 19:32N 47°33' W 122°21'0 0.0
2015-Mar-19 18:33N 47°33' W 122°21'0 0.0
2015-Mar-19 18:32N 47°33' W 122°21'0 0.0
2015-Mar-19 17:33N 47°33' W 122°21'0 0.0
2015-Mar-19 17:32N 47°33' W 122°21'0 0.0
2015-Mar-19 16:33N 47°33' W 122°21'0 0.0
2015-Mar-19 16:32N 47°33' W 122°21'0 0.0
2015-Mar-19 15:31N 47°33' W 122°21'0 0.0
2015-Mar-19 15:31N 47°33' W 122°21'0 0.0
2015-Mar-19 14:33N 47°33' W 122°21'0 0.0
2015-Mar-19 14:31N 47°33' W 122°21'0 0.0
2015-Mar-19 13:33N 47°33' W 122°21'0 0.0
2015-Mar-19 13:29N 47°33' W 122°21'0 0.0
2015-Mar-19 12:32N 47°33' W 122°21'0 0.0
2015-Mar-19 12:30N 47°33' W 122°21'0 0.0
2015-Mar-19 11:33N 47°33' W 122°21'0 0.0
2015-Mar-19 11:30N 47°33' W 122°21'0 0.0
2015-Mar-19 10:33N 47°33' W 122°21'0 0.0
2015-Mar-19 10:30N 47°33' W 122°21'0 0.0
2015-Mar-19 09:14N 47°33' W 122°21'0 0.0
2015-Mar-19 09:14N 47°33' W 122°21'0 0.0
2015-Mar-19 08:33N 47°33' W 122°21'0 0.0
2015-Mar-19 08:29N 47°33' W 122°21'0 0.0
2015-Mar-19 07:27N 47°33' W 122°21'0 0.2
2015-Mar-19 07:24N 47°33' W 122°21'0 0.0
2015-Mar-19 06:33N 47°33' W 122°21'0 0.0
2015-Mar-19 06:03N 47°33' W 122°21'0 0.0
2015-Mar-19 05:27N 47°33' W 122°21'0 0.0
2015-Mar-19 04:30N 47°33' W 122°21'0 0.4
2015-Mar-19 04:29N 47°33' W 122°21'0 0.0
2015-Mar-19 03:30N 47°33' W 122°21'0 0.8
2015-Mar-19 03:29N 47°33' W 122°21'0 0.0
2015-Mar-19 02:30N 47°33' W 122°21'0 0.2
2015-Mar-19 02:29N 47°33' W 122°21'0 0.0
2015-Mar-19 01:32N 47°33' W 122°21'0 0.1
2015-Mar-19 01:29N 47°33' W 122°21'0 0.0
2015-Mar-19 00:29N 47°33' W 122°21'0 0.0
2015-Mar-19 00:28N 47°33' W 122°21'0 0.0
2015-Mar-18 23:32N 47°33' W 122°21'0 0.0
2015-Mar-18 23:27N 47°33' W 122°21'0 0.0
2015-Mar-18 22:29N 47°33' W 122°21'0 0.0
2015-Mar-18 22:28N 47°33' W 122°21'0 0.0
2015-Mar-18 21:32N 47°33' W 122°21'0 0.3
2015-Mar-18 21:23N 47°33' W 122°21'0 0.0
2015-Mar-18 20:32N 47°33' W 122°21'0 0.1
2015-Mar-18 20:28N 47°33' W 122°21'0 0.0
2015-Mar-18 19:24N 47°33' W 122°21'0 0.0
2015-Mar-18 19:22N 47°33' W 122°21'0 0.0
2015-Mar-18 18:33N 47°33' W 122°21'0 0.0
2015-Mar-18 18:27N 47°33' W 122°21'0 0.0
2015-Mar-18 17:33N 47°33' W 122°21'0 0.0
2015-Mar-18 17:32N 47°33' W 122°21'0 0.0
2015-Mar-18 16:33N 47°33' W 122°21'0 0.0
2015-Mar-18 16:27N 47°33' W 122°21'0 0.0
2015-Mar-18 15:33N 47°33' W 122°21'0 0.1
2015-Mar-18 15:31N 47°33' W 122°21'0 0.0
2015-Mar-18 14:33N 47°33' W 122°21'0 0.0
2015-Mar-18 14:31N 47°33' W 122°21'0 0.0
2015-Mar-18 13:33N 47°33' W 122°21'0 0.0
2015-Mar-18 13:31N 47°33' W 122°21'0 0.0
2015-Mar-18 12:33N 47°33' W 122°21'0 0.2
2015-Mar-18 12:31N 47°33' W 122°21'0 0.0
2015-Mar-18 11:33N 47°33' W 122°21'0 0.0
2015-Mar-18 11:31N 47°33' W 122°21'0 0.0
2015-Mar-18 10:33N 47°33' W 122°21'0 0.0
2015-Mar-18 10:26N 47°33' W 122°21'0 0.0
2015-Mar-18 08:32N 47°33' W 122°21'0 0.0
2015-Mar-18 08:13N 47°33' W 122°21'0 0.0
2015-Mar-18 07:33N 47°33' W 122°21'0 0.0
2015-Mar-18 07:33N 47°33' W 122°21'0 0.0
2015-Mar-18 06:33N 47°33' W 122°21'0 0.4
2015-Mar-18 06:33N 47°33' W 122°21'0 0.0
2015-Mar-18 06:13N 47°33' W 122°21'0 0.0
2015-Mar-18 05:33N 47°33' W 122°21'0 0.0
2015-Mar-18 04:33N 47°33' W 122°21'0 0.6
2015-Mar-18 04:32N 47°33' W 122°21'0 0.0
2015-Mar-18 03:33N 47°33' W 122°21'0 0.0
2015-Mar-18 03:32N 47°33' W 122°21'0 0.0
2015-Mar-18 02:33N 47°33' W 122°21'0 0.0
2015-Mar-18 02:32N 47°33' W 122°21'0 0.0
2015-Mar-18 00:25N 47°33' W 122°21'0 0.0
2015-Mar-18 00:25N 47°33' W 122°21'0 0.0
2015-Mar-17 23:33N 47°33' W 122°21'0 0.0
2015-Mar-17 23:26N 47°33' W 122°21'0 0.0
2015-Mar-17 22:33N 47°33' W 122°21'0 0.0
2015-Mar-17 22:31N 47°33' W 122°21'0 0.0
2015-Mar-17 21:33N 47°33' W 122°21'0 0.1
2015-Mar-17 21:31N 47°33' W 122°21'0 0.0
2015-Mar-17 20:33N 47°33' W 122°21'0 0.0
2015-Mar-17 20:30N 47°33' W 122°21'0 0.0
2015-Mar-17 19:33N 47°33' W 122°21'0 0.0
2015-Mar-17 19:31N 47°33' W 122°21'0 0.0
2015-Mar-17 18:33N 47°33' W 122°21'0 0.0
2015-Mar-17 18:31N 47°33' W 122°21'0 0.0
2015-Mar-17 17:33N 47°33' W 122°21'0 0.0
2015-Mar-17 17:30N 47°33' W 122°21'0 0.0
2015-Mar-17 16:33N 47°33' W 122°21'0 0.0
2015-Mar-17 16:29N 47°33' W 122°21'  

Dump ship's entire track history